createdAt,value
2018-04-17T00:01:09.312Z,101397
2018-04-17T00:03:37.589Z,101396
2018-04-17T00:06:05.867Z,101394
2018-04-17T00:08:34.000Z,101397
2018-04-17T00:11:02.089Z,101401
2018-04-17T00:13:30.475Z,101402
2018-04-17T00:15:58.859Z,101405
2018-04-17T00:18:27.173Z,101404
2018-04-17T00:20:55.295Z,101408
2018-04-17T00:23:23.697Z,101407
2018-04-17T00:25:51.926Z,101413
2018-04-17T00:28:20.401Z,101418
2018-04-17T00:30:50.347Z,101420
2018-04-17T00:33:18.799Z,101422
2018-04-17T00:35:47.101Z,101428
2018-04-17T00:38:15.368Z,101424
2018-04-17T00:40:43.503Z,101434
2018-04-17T00:43:11.618Z,101441
2018-04-17T00:45:39.729Z,101435
2018-04-17T00:48:07.934Z,101445
2018-04-17T00:50:36.086Z,101451
2018-04-17T00:53:16.268Z,101439
2018-04-17T00:55:44.386Z,101444
2018-04-17T00:58:12.519Z,101432
2018-04-17T01:00:40.671Z,101440
2018-04-17T01:03:09.021Z,101437
2018-04-17T01:05:40.181Z,101445
2018-04-17T01:08:08.299Z,101449
2018-04-17T01:10:36.405Z,101455
2018-04-17T01:13:04.610Z,101448
2018-04-17T01:15:32.815Z,101454
2018-04-17T01:18:00.915Z,101455
2018-04-17T01:20:29.284Z,101463
2018-04-17T01:22:57.359Z,101458
2018-04-17T01:25:25.710Z,101453
2018-04-17T01:27:54.098Z,101458
2018-04-17T01:30:22.338Z,101455
2018-04-17T01:32:50.524Z,101460
2018-04-17T01:35:18.922Z,101451
2018-04-17T01:37:47.210Z,101465
2018-04-17T01:40:15.319Z,101459
2018-04-17T01:42:43.428Z,101472
2018-04-17T01:45:11.840Z,101472
2018-04-17T01:47:40.026Z,101472
2018-04-17T01:50:08.125Z,101471
2018-04-17T01:52:36.322Z,101474
2018-04-17T01:55:04.414Z,101476
2018-04-17T01:57:33.203Z,101471
2018-04-17T02:00:01.728Z,101479
2018-04-17T02:02:29.820Z,101477
2018-04-17T02:04:57.927Z,101477
2018-04-17T02:07:26.040Z,101474
2018-04-17T02:09:54.374Z,101477
2018-04-17T02:12:22.835Z,101487
2018-04-17T02:14:51.134Z,101477
2018-04-17T02:17:19.490Z,101486
2018-04-17T02:19:47.900Z,101481
2018-04-17T02:22:16.142Z,101473
2018-04-17T02:24:44.326Z,101480
2018-04-17T02:27:12.429Z,101484
2018-04-17T02:29:40.508Z,101482
2018-04-17T02:32:08.886Z,101478
2018-04-17T02:34:37.246Z,101487
2018-04-17T02:37:05.349Z,101485
2018-04-17T02:39:33.590Z,101490
2018-04-17T02:42:01.754Z,101495
2018-04-17T02:44:29.889Z,101496
2018-04-17T02:46:57.985Z,101494
2018-04-17T02:49:26.092Z,101494
2018-04-17T02:51:54.345Z,101494
2018-04-17T02:54:22.430Z,101500
2018-04-17T02:56:50.725Z,101498
2018-04-17T02:59:19.166Z,101504
2018-04-17T03:01:47.549Z,101499
2018-04-17T03:04:15.635Z,101493
2018-04-17T03:06:43.929Z,101502
2018-04-17T03:09:12.052Z,101504
2018-04-17T03:11:40.169Z,101501
2018-04-17T03:14:08.522Z,101512
2018-04-17T03:16:36.790Z,101513
2018-04-17T03:19:04.926Z,101520
2018-04-17T03:21:33.244Z,101515
2018-04-17T03:24:01.433Z,101526
2018-04-17T03:26:29.804Z,101519
2018-04-17T03:28:57.893Z,101529
2018-04-17T03:31:26.137Z,101523
2018-04-17T03:33:54.257Z,101537
2018-04-17T03:36:22.341Z,101544
2018-04-17T03:38:50.438Z,101532
2018-04-17T03:41:18.556Z,101532
2018-04-17T03:43:46.820Z,101534
2018-04-17T03:46:15.182Z,101538
2018-04-17T03:48:43.264Z,101537
2018-04-17T03:51:11.361Z,101539
2018-04-17T03:53:39.482Z,101543
2018-04-17T03:56:07.860Z,101539
2018-04-17T03:58:36.246Z,101550
2018-04-17T04:01:04.613Z,101552
2018-04-17T04:03:32.718Z,101547
2018-04-17T04:06:01.071Z,101548
2018-04-17T04:08:29.233Z,101561
2018-04-17T04:10:57.407Z,101567
2018-04-17T04:13:25.509Z,101559
2018-04-17T04:15:53.590Z,101555
2018-04-17T04:18:33.731Z,101560
2018-04-17T04:21:13.775Z,101559
2018-04-17T04:23:53.490Z,101567
2018-04-17T04:26:29.095Z,101573
2018-04-17T04:28:57.363Z,101577
2018-04-17T04:31:25.468Z,101575
2018-04-17T04:33:53.559Z,101578
2018-04-17T04:36:21.790Z,101580
2018-04-17T04:38:49.929Z,101577
2018-04-17T04:41:18.293Z,101590
2018-04-17T04:43:46.431Z,101591
2018-04-17T04:46:14.713Z,101586
2018-04-17T04:48:43.224Z,101591
2018-04-17T04:51:11.377Z,101597
2018-04-17T04:53:39.533Z,101584
2018-04-17T04:56:07.636Z,101598
2018-04-17T04:58:35.756Z,101602
2018-04-17T05:01:04.205Z,101602
2018-04-17T05:03:32.862Z,101608
2018-04-17T05:06:01.171Z,101623
2018-04-17T05:08:29.307Z,101627
2018-04-17T05:10:57.639Z,101633
2018-04-17T05:13:25.763Z,101630
2018-04-17T05:15:54.178Z,101648
2018-04-17T05:18:22.516Z,101649
2018-04-17T05:20:51.133Z,101652
2018-04-17T05:23:19.306Z,101662
2018-04-17T05:25:47.803Z,101660
2018-04-17T05:28:16.161Z,101665
2018-04-17T05:30:44.418Z,101668
2018-04-17T05:33:12.771Z,101671
2018-04-17T05:35:41.074Z,101681
2018-04-17T05:38:09.550Z,101678
2018-04-17T05:40:37.913Z,101682
2018-04-17T05:43:06.213Z,101681
2018-04-17T05:45:34.898Z,101686
2018-04-17T05:48:02.986Z,101702
2018-04-17T05:50:31.341Z,101693
2018-04-17T05:53:00.020Z,101699
2018-04-17T05:55:28.726Z,101692
2018-04-17T05:57:56.884Z,101681
2018-04-17T06:00:25.174Z,101700
2018-04-17T06:02:53.498Z,101704
2018-04-17T06:05:21.769Z,101707
2018-04-17T06:07:50.361Z,101699
2018-04-17T06:10:18.693Z,101716
2018-04-17T06:12:50.541Z,101729
2018-04-17T06:15:20.157Z,101732
2018-04-17T06:18:00.052Z,101740
2018-04-17T06:20:28.181Z,101739
2018-04-17T06:22:56.615Z,101748
2018-04-17T06:25:25.314Z,101746
2018-04-17T06:27:53.498Z,101747
2018-04-17T06:30:21.808Z,101747
2018-04-17T06:32:50.142Z,101745
2018-04-17T06:35:18.539Z,101748
2018-04-17T06:37:46.864Z,101744
2018-04-17T06:40:15.279Z,101748
2018-04-17T06:42:43.404Z,101756
2018-04-17T06:45:11.765Z,101757
2018-04-17T06:47:40.304Z,101764
2018-04-17T06:50:08.622Z,101760
2018-04-17T06:52:36.868Z,101753
2018-04-17T06:55:05.777Z,101753
2018-04-17T06:57:34.228Z,101747
2018-04-17T07:00:02.655Z,101757
2018-04-17T07:02:30.754Z,101765
2018-04-17T07:04:59.027Z,101765
2018-04-17T07:07:27.330Z,101768
2018-04-17T07:09:55.743Z,101766
2018-04-17T07:12:23.848Z,101767
2018-04-17T07:14:52.380Z,101776
2018-04-17T07:17:20.567Z,101796
2018-04-17T07:19:48.880Z,101785
2018-04-17T07:22:17.377Z,101795
2018-04-17T07:24:45.697Z,101781
2018-04-17T07:27:13.794Z,101785
2018-04-17T07:29:43.142Z,101793
2018-04-17T07:32:11.252Z,101788
2018-04-17T07:34:39.639Z,101800
2018-04-17T07:37:07.990Z,101802
2018-04-17T07:39:36.086Z,101803
2018-04-17T07:42:04.447Z,101808
2018-04-17T07:44:32.992Z,101783
2018-04-17T07:47:12.778Z,101795
2018-04-17T07:49:41.144Z,101798
2018-04-17T07:52:09.438Z,101792
2018-04-17T07:54:37.577Z,101795
2018-04-17T07:57:05.692Z,101795
2018-04-17T07:59:34.057Z,101791
2018-04-17T08:02:02.403Z,101797
2018-04-17T08:04:30.530Z,101800
2018-04-17T08:06:58.747Z,101809
2018-04-17T08:09:27.009Z,101809
2018-04-17T08:11:55.226Z,101797
2018-04-17T08:14:23.510Z,101793
2018-04-17T08:16:52.776Z,101806
2018-04-17T08:19:20.884Z,101811
2018-04-17T08:21:49.425Z,101811
2018-04-17T08:24:17.829Z,101819
2018-04-17T08:26:46.016Z,101821
2018-04-17T08:29:14.523Z,101810
2018-04-17T08:31:43.014Z,101821
2018-04-17T08:34:11.091Z,101813
2018-04-17T08:36:39.807Z,101804
2018-04-17T08:39:07.924Z,101809
2018-04-17T08:41:36.188Z,101820
2018-04-17T08:44:04.628Z,101812
2018-04-17T08:46:32.892Z,101803
2018-04-17T08:49:01.329Z,101809
2018-04-17T08:51:29.948Z,101812
2018-04-17T08:53:58.365Z,101820
2018-04-17T08:56:27.131Z,101809
2018-04-17T08:58:55.319Z,101801
2018-04-17T09:01:23.466Z,101819
2018-04-17T09:03:51.678Z,101825
2018-04-17T09:06:20.337Z,101826
2018-04-17T09:08:48.537Z,101825
2018-04-17T09:11:17.093Z,101823
2018-04-17T09:13:45.368Z,101826
2018-04-17T09:16:13.774Z,101826
2018-04-17T09:18:42.454Z,101830
2018-04-17T09:21:10.527Z,101829
2018-04-17T09:23:38.882Z,101825
2018-04-17T09:26:07.604Z,101829
2018-04-17T09:28:36.278Z,101832
2018-04-17T09:31:04.823Z,101821
2018-04-17T09:33:33.133Z,101823
2018-04-17T09:36:01.347Z,101826
2018-04-17T09:38:30.069Z,101825
2018-04-17T09:40:58.291Z,101832
2018-04-17T09:43:26.776Z,101834
2018-04-17T09:45:55.315Z,101829
2018-04-17T09:48:23.721Z,101838
2018-04-17T09:50:52.219Z,101833
2018-04-17T09:53:20.393Z,101831
2018-04-17T09:55:48.627Z,101832
2018-04-17T09:58:16.895Z,101840
2018-04-17T10:00:50.650Z,101834
2018-04-17T10:03:18.907Z,101825
2018-04-17T10:05:47.006Z,101837
2018-04-17T10:08:15.413Z,101829
2018-04-17T10:10:43.769Z,101844
2018-04-17T10:13:12.021Z,101846
2018-04-17T10:15:40.463Z,101845
2018-04-17T10:18:08.572Z,101824
2018-04-17T10:20:37.021Z,101833
2018-04-17T10:23:05.703Z,101819
2018-04-17T10:25:33.837Z,101842
2018-04-17T10:28:02.385Z,101845
2018-04-17T10:30:30.470Z,101830
2018-04-17T10:32:58.825Z,101824
2018-04-17T10:35:27.487Z,101819
2018-04-17T10:37:55.589Z,101819
2018-04-17T10:40:23.728Z,101821
2018-04-17T10:42:51.970Z,101813
2018-04-17T10:45:20.490Z,101812
2018-04-17T10:47:48.785Z,101828
2018-04-17T10:50:17.126Z,101815
2018-04-17T10:52:45.298Z,101812
2018-04-17T10:55:13.604Z,101812
2018-04-17T10:57:41.779Z,101804
2018-04-17T11:00:10.066Z,101805
2018-04-17T11:02:38.424Z,101803
2018-04-17T11:05:06.904Z,101796
2018-04-17T11:07:35.119Z,101798
2018-04-17T11:10:03.197Z,101798
2018-04-17T11:12:31.313Z,101798
2018-04-17T11:14:59.501Z,101808
2018-04-17T11:17:28.079Z,101805
2018-04-17T11:19:56.261Z,101788
2018-04-17T11:22:24.441Z,101802
2018-04-17T11:24:52.646Z,101795
2018-04-17T11:27:20.784Z,101809
2018-04-17T11:29:49.173Z,101798
2018-04-17T11:32:17.537Z,101808
2018-04-17T11:34:45.914Z,101794
2018-04-17T11:37:14.315Z,101802
2018-04-17T11:39:42.545Z,101804
2018-04-17T11:42:10.664Z,101791
2018-04-17T11:44:38.796Z,101799
2018-04-17T11:47:07.153Z,101792
2018-04-17T11:49:35.415Z,101800
2018-04-17T11:52:03.542Z,101801
2018-04-17T11:54:32.012Z,101804
2018-04-17T11:57:00.395Z,101787
2018-04-17T11:59:28.664Z,101790
2018-04-17T12:01:57.027Z,101785
2018-04-17T12:04:25.437Z,101781
2018-04-17T12:06:53.538Z,101788
2018-04-17T12:09:21.978Z,101792
2018-04-17T12:11:50.323Z,101786
2018-04-17T12:14:18.631Z,101788
2018-04-17T12:16:47.100Z,101799
2018-04-17T12:19:15.315Z,101791
2018-04-17T12:21:44.638Z,101804
2018-04-17T12:24:12.846Z,101796
2018-04-17T12:26:41.150Z,101802
2018-04-17T12:29:09.582Z,101802
2018-04-17T12:31:37.961Z,101795
2018-04-17T12:34:06.291Z,101796
2018-04-17T12:36:34.605Z,101801
2018-04-17T12:39:02.840Z,101799
2018-04-17T12:41:31.014Z,101818
2018-04-17T12:43:59.299Z,101806
2018-04-17T12:46:27.637Z,101812
2018-04-17T12:48:55.972Z,101810
2018-04-17T12:51:24.423Z,101807
2018-04-17T12:53:53.064Z,101801
2018-04-17T12:56:21.243Z,101794
2018-04-17T12:58:49.538Z,101805
2018-04-17T13:01:17.740Z,101806
2018-04-17T13:03:46.028Z,101799
2018-04-17T13:06:14.335Z,101800
2018-04-17T13:08:42.628Z,101811
2018-04-17T13:11:11.123Z,101810
2018-04-17T13:13:39.497Z,101809
2018-04-17T13:16:07.673Z,101810
2018-04-17T13:18:35.798Z,101807
2018-04-17T13:21:03.918Z,101804
2018-04-17T13:23:32.368Z,101808
2018-04-17T13:26:00.489Z,101806
2018-04-17T13:28:28.758Z,101806
2018-04-17T13:30:57.014Z,101802
2018-04-17T13:33:25.310Z,101804
2018-04-17T13:35:53.698Z,101795
2018-04-17T13:38:22.122Z,101788
2018-04-17T13:40:50.305Z,101795
2018-04-17T13:43:18.398Z,101797
2018-04-17T13:45:46.511Z,101796
2018-04-17T13:48:14.858Z,101800
2018-04-17T13:50:42.994Z,101783
2018-04-17T13:53:11.159Z,101790
2018-04-17T13:55:39.839Z,101789
2018-04-17T13:58:08.274Z,101787
2018-04-17T14:00:36.430Z,101783
2018-04-17T14:03:04.709Z,101781
2018-04-17T14:05:32.909Z,101776
2018-04-17T14:08:01.117Z,101791
2018-04-17T14:10:29.556Z,101791
2018-04-17T14:12:58.204Z,101780
2018-04-17T14:15:26.273Z,101770
2018-04-17T14:17:54.663Z,101780
2018-04-17T14:20:22.966Z,101781
2018-04-17T14:22:51.333Z,101785
2018-04-17T14:25:19.583Z,101783
2018-04-17T14:27:48.262Z,101785
2018-04-17T14:30:16.379Z,101790
2018-04-17T14:32:44.626Z,101788
2018-04-17T14:35:13.294Z,101787
2018-04-17T14:37:41.606Z,101789
2018-04-17T14:40:10.055Z,101789
2018-04-17T14:42:38.367Z,101788
2018-04-17T14:45:06.593Z,101781
2018-04-17T14:47:35.149Z,101790
2018-04-17T14:50:03.634Z,101791
2018-04-17T14:52:32.106Z,101797
2018-04-17T14:55:00.251Z,101795
2018-04-17T14:57:28.753Z,101802
2018-04-17T14:59:57.080Z,101797
2018-04-17T15:02:25.448Z,101794
2018-04-17T15:04:53.577Z,101802
2018-04-17T15:07:22.079Z,101797
2018-04-17T15:09:50.426Z,101799
2018-04-17T15:12:18.778Z,101814
2018-04-17T15:14:47.156Z,101808
2018-04-17T15:17:15.415Z,101813
2018-04-17T15:19:43.865Z,101803
2018-04-17T15:22:12.456Z,101814
2018-04-17T15:24:40.544Z,101810
2018-04-17T15:27:08.912Z,101814
2018-04-17T15:29:37.063Z,101815
2018-04-17T15:32:05.202Z,101807
2018-04-17T15:34:33.466Z,101811
2018-04-17T15:37:01.649Z,101819
2018-04-17T15:39:30.208Z,101814
2018-04-17T15:41:58.349Z,101820
2018-04-17T15:44:26.480Z,101821
2018-04-17T15:46:55.069Z,101824
2018-04-17T15:49:23.436Z,101824
2018-04-17T15:51:53.139Z,101822
2018-04-17T15:54:21.314Z,101824
2018-04-17T15:56:49.597Z,101826
2018-04-17T15:59:18.009Z,101821
2018-04-17T16:01:46.351Z,101826
2018-04-17T16:04:14.712Z,101831
2018-04-17T16:06:43.107Z,101821
2018-04-17T16:09:11.400Z,101814
2018-04-17T16:11:39.759Z,101805
2018-04-17T16:14:07.972Z,101802
2018-04-17T16:16:36.105Z,101807
2018-04-17T16:19:04.274Z,101806
2018-04-17T16:21:32.744Z,101796
2018-04-17T16:24:01.091Z,101807
2018-04-17T16:26:29.259Z,101800
2018-04-17T16:28:57.898Z,101802
2018-04-17T16:31:26.581Z,101807
2018-04-17T16:33:55.082Z,101813
2018-04-17T16:36:23.562Z,101811
2018-04-17T16:38:51.913Z,101818
2018-04-17T16:41:20.276Z,101814
2018-04-17T16:43:48.758Z,101814
2018-04-17T16:46:16.974Z,101816
2018-04-17T16:48:45.538Z,101816
2018-04-17T16:51:13.771Z,101821
2018-04-17T16:53:42.223Z,101820
2018-04-17T16:56:10.636Z,101826
2018-04-17T16:58:38.866Z,101828
2018-04-17T17:01:07.117Z,101833
2018-04-17T17:03:35.493Z,101831
2018-04-17T17:06:03.803Z,101838
2018-04-17T17:08:32.199Z,101831
2018-04-17T17:11:00.521Z,101838
2018-04-17T17:13:28.916Z,101840
2018-04-17T17:15:57.038Z,101837
2018-04-17T17:18:25.352Z,101833
2018-04-17T17:20:53.718Z,101838
2018-04-17T17:23:22.144Z,101843
2018-04-17T17:25:50.292Z,101851
2018-04-17T17:28:18.578Z,101851
2018-04-17T17:30:46.977Z,101858
2018-04-17T17:33:15.265Z,101860
2018-04-17T17:35:43.319Z,101871
2018-04-17T17:38:11.595Z,101876
2018-04-17T17:40:39.731Z,101882
2018-04-17T17:43:08.023Z,101878
2018-04-17T17:45:36.367Z,101890
2018-04-17T17:48:04.698Z,101896
2018-04-17T17:50:33.107Z,101889
2018-04-17T17:53:01.202Z,101892
2018-04-17T17:55:29.594Z,101906
2018-04-17T17:57:57.773Z,101901
2018-04-17T18:00:25.975Z,101893
2018-04-17T18:02:54.189Z,101906
2018-04-17T18:05:22.730Z,101912
2018-04-17T18:07:50.835Z,101914
2018-04-17T18:10:19.191Z,101910
2018-04-17T18:12:47.509Z,101902
2018-04-17T18:15:15.613Z,101914
2018-04-17T18:17:43.689Z,101904
2018-04-17T18:20:11.815Z,101910
2018-04-17T18:22:40.114Z,101909
2018-04-17T18:25:08.419Z,101913
2018-04-17T18:27:36.975Z,101913
2018-04-17T18:30:05.090Z,101933
2018-04-17T18:32:33.348Z,101933
2018-04-17T18:35:01.745Z,101940
2018-04-17T18:37:29.827Z,101938
2018-04-17T18:39:58.174Z,101937
2018-04-17T18:42:26.242Z,101941
2018-04-17T18:44:54.706Z,101942
2018-04-17T18:47:22.992Z,101935
2018-04-17T18:49:51.314Z,101936
2018-04-17T18:52:19.399Z,101948
2018-04-17T18:54:47.815Z,101951
2018-04-17T18:57:15.984Z,101957
2018-04-17T18:59:44.294Z,101960
2018-04-17T19:02:12.674Z,101963
2018-04-17T19:04:40.970Z,101966
2018-04-17T19:07:09.110Z,101975
2018-04-17T19:09:37.405Z,101968
2018-04-17T19:12:05.641Z,101974
2018-04-17T19:14:33.986Z,101978
2018-04-17T19:17:02.396Z,101983
2018-04-17T19:19:30.726Z,101987
2018-04-17T19:21:58.858Z,101984
2018-04-17T19:24:26.970Z,101984
2018-04-17T19:26:55.242Z,101984
2018-04-17T19:29:23.334Z,101978
2018-04-17T19:31:51.460Z,101990
2018-04-17T19:34:19.779Z,101982
2018-04-17T19:36:47.867Z,101992
2018-04-17T19:39:16.152Z,101988
2018-04-17T19:41:44.532Z,101986
2018-04-17T19:44:12.944Z,101997
2018-04-17T19:46:41.271Z,101994
2018-04-17T19:49:09.401Z,101989
2018-04-17T19:51:37.716Z,102003
2018-04-17T19:54:05.844Z,101993
2018-04-17T19:56:34.219Z,101999
2018-04-17T19:59:02.649Z,102006
2018-04-17T20:01:30.978Z,102007
2018-04-17T20:03:59.374Z,102007
2018-04-17T20:06:27.548Z,102009
2018-04-17T20:08:55.836Z,102007
2018-04-17T20:11:24.318Z,102014
2018-04-17T20:13:52.397Z,102015
2018-04-17T20:16:20.503Z,102011
2018-04-17T20:18:48.715Z,102018
2018-04-17T20:21:16.824Z,102018
2018-04-17T20:23:45.154Z,102025
2018-04-17T20:26:13.483Z,102020
2018-04-17T20:28:41.607Z,102025
2018-04-17T20:31:09.985Z,102015
2018-04-17T20:33:38.423Z,102017
2018-04-17T20:36:06.535Z,102022
2018-04-17T20:38:34.821Z,102031
2018-04-17T20:41:03.199Z,102028
2018-04-17T20:43:31.491Z,102026
2018-04-17T20:45:59.583Z,102024
2018-04-17T20:48:27.697Z,102027
2018-04-17T20:50:55.822Z,102029
2018-04-17T20:53:24.082Z,102027
2018-04-17T20:55:52.247Z,102036
2018-04-17T20:58:21.767Z,102030
2018-04-17T21:00:49.994Z,102025
2018-04-17T21:03:18.273Z,102033
2018-04-17T21:05:46.490Z,102038
2018-04-17T21:08:14.782Z,102031
2018-04-17T21:10:42.933Z,102037
2018-04-17T21:13:11.247Z,102024
2018-04-17T21:15:39.345Z,102024
2018-04-17T21:18:07.668Z,102029
2018-04-17T21:20:35.769Z,102032
2018-04-17T21:23:03.874Z,102032
2018-04-17T21:25:32.037Z,102036
2018-04-17T21:28:00.325Z,102035
2018-04-17T21:30:28.657Z,102039
2018-04-17T21:32:56.741Z,102049
2018-04-17T21:35:24.857Z,102037
2018-04-17T21:37:52.935Z,102036
2018-04-17T21:40:21.294Z,102039
2018-04-17T21:42:49.373Z,102041
2018-04-17T21:45:17.705Z,102037
2018-04-17T21:47:46.143Z,102048
2018-04-17T21:50:14.410Z,102042
2018-04-17T21:52:42.499Z,102051
2018-04-17T21:55:10.642Z,102051
2018-04-17T21:57:38.910Z,102045
2018-04-17T22:00:07.076Z,102052
2018-04-17T22:02:35.548Z,102053
2018-04-17T22:05:03.634Z,102054
2018-04-17T22:07:31.885Z,102047
2018-04-17T22:10:00.204Z,102055
2018-04-17T22:12:28.318Z,102047
2018-04-17T22:14:56.438Z,102048
2018-04-17T22:17:24.689Z,102042
2018-04-17T22:19:52.782Z,102046
2018-04-17T22:22:20.883Z,102049
2018-04-17T22:24:49.037Z,102055
2018-04-17T22:27:17.419Z,102056
2018-04-17T22:29:45.512Z,102064
2018-04-17T22:32:13.597Z,102056
2018-04-17T22:34:41.687Z,102067
2018-04-17T22:37:09.874Z,102061
2018-04-17T22:39:37.963Z,102062
2018-04-17T22:42:06.058Z,102059
2018-04-17T22:44:34.183Z,102068
2018-04-17T22:47:02.561Z,102063
2018-04-17T22:49:30.847Z,102054
2018-04-17T22:51:58.963Z,102058
2018-04-17T22:54:27.153Z,102072
2018-04-17T22:56:55.563Z,102068
2018-04-17T22:59:24.239Z,102076
2018-04-17T23:01:52.467Z,102064
2018-04-17T23:04:20.561Z,102070
2018-04-17T23:06:48.667Z,102066
2018-04-17T23:09:16.971Z,102060
2018-04-17T23:11:45.067Z,102069
2018-04-17T23:14:13.402Z,102069
2018-04-17T23:16:41.779Z,102071
2018-04-17T23:19:09.981Z,102072
2018-04-17T23:21:38.099Z,102074
2018-04-17T23:24:06.200Z,102085
2018-04-17T23:26:34.460Z,102074
2018-04-17T23:29:02.571Z,102083
2018-04-17T23:31:30.820Z,102072
2018-04-17T23:33:58.909Z,102082
2018-04-17T23:36:27.181Z,102072
2018-04-17T23:38:55.417Z,102079
2018-04-17T23:41:23.745Z,102084
2018-04-17T23:43:51.872Z,102081
2018-04-17T23:46:20.257Z,102077
2018-04-17T23:48:48.371Z,102083
2018-04-17T23:51:16.627Z,102089
2018-04-17T23:53:44.808Z,102083
2018-04-17T23:56:13.026Z,102082
2018-04-17T23:58:41.100Z,102085
